Time;durP1;ratioP1;P1;durP2;ratioP2;P2;SDS_P1;SDS_P2;PMS_P1;PMS_P2;Temp;Humidity;BMP_temperature;BMP_pressure;BME280_temperature;BME280_humidity;BME280_pressure;Samples;Min_cycle;Max_cycle;Signal;HPM_P1;HPM_P2
2022/11/10 00:09:10;;;;;;;1.42;0.95;;;;;;;16.96;100.00;101120.13;20474013;28;20126;-92
2022/11/10 00:19:32;;;;;;;2.83;1.17;;;;;;;17.25;100.00;101159.97;20473969;28;20047;-91
2022/11/10 00:29:52;;;;;;;2.00;1.17;;;;;;;16.95;100.00;101115.72;20484587;28;20047;-90
2022/11/10 00:40:12;;;;;;;2.20;1.25;;;;;;;17.24;100.00;101169.03;20475405;28;20051;-91
2022/11/10 00:50:33;;;;;;;2.22;1.27;;;;;;;17.24;100.00;101200.44;20464445;28;20504;-91
2022/11/10 01:01:01;;;;;;;2.40;1.00;;;;;;;16.97;100.00;101161.31;20487431;28;20051;-92
2022/11/10 01:11:24;;;;;;;2.10;1.20;;;;;;;17.23;100.00;101210.38;20471826;28;20079;-92
2022/11/10 01:21:44;;;;;;;2.00;1.10;;;;;;;16.92;100.00;101180.53;20470125;28;20446;-91
2022/11/10 01:32:04;;;;;;;1.83;1.00;;;;;;;17.22;100.00;101240.94;20471975;28;20051;-91
2022/11/10 01:42:26;;;;;;;2.42;0.95;;;;;;;17.23;100.00;101241.78;20468999;28;20515;-91
2022/11/10 01:52:49;;;;;;;1.65;0.98;;;;;;;17.23;100.00;101250.75;20481158;28;20126;-90
2022/11/10 02:03:18;;;;;;;1.08;0.93;;;;;;;17.02;100.00;101226.41;20477808;28;20071;-91
2022/11/10 02:13:39;;;;;;;1.60;0.90;;;;;;;17.10;100.00;101252.69;20482425;28;20039;-91
2022/11/10 02:23:59;;;;;;;1.23;0.70;;;;;;;17.22;100.00;101257.06;20496805;28;20073;-91
2022/11/10 02:34:19;;;;;;;1.52;1.05;;;;;;;17.10;100.00;101252.69;20484117;28;20420;-92
2022/11/10 02:44:39;;;;;;;1.05;0.70;;;;;;;17.21;100.00;101293.03;20483870;28;20075;-91
2022/11/10 02:54:59;;;;;;;1.85;0.90;;;;;;;17.21;100.00;101301.09;20494150;28;20496;-91
2022/11/10 03:05:19;;;;;;;1.65;0.90;;;;;;;17.20;100.00;101302.06;20483656;28;20047;-90
2022/11/10 03:15:39;;;;;;;1.38;0.80;;;;;;;17.08;100.00;101305.75;20467010;28;20525;-91
2022/11/10 03:26:03;;;;;;;1.27;0.88;;;;;;;16.98;100.00;101312.84;20478367;28;20415;-91
2022/11/10 03:36:23;;;;;;;1.30;0.70;;;;;;;17.11;100.00;101351.22;20478997;28;20078;-90
2022/11/10 03:46:43;;;;;;;1.05;0.82;;;;;;;17.21;100.00;101364.84;20474393;28;20051;-91
2022/11/10 03:57:08;;;;;;;;;;;;;;;17.20;100.00;101373.88;20475396;28;20099;-91
2022/11/10 04:18:30;;;;;;;1.73;0.80;;;;;;;17.02;100.00;101373.47;20461115;28;20047;-90
2022/11/10 04:28:58;;;;;;;1.00;0.60;;;;;;;16.76;100.00;101346.72;20467215;28;20047;-92
2022/11/10 04:39:18;;;;;;;1.73;0.88;;;;;;;17.16;100.00;101427.06;20469093;28;20059;-91
2022/11/10 04:49:39;;;;;;;1.20;0.90;;;;;;;17.18;100.00;101432.34;20472923;28;20516;-91
2022/11/10 04:59:58;;;;;;;1.00;0.60;;;;;;;17.06;100.00;101429.63;20464765;28;20599;-91
2022/11/10 05:10:18;;;;;;;1.58;0.82;;;;;;;17.17;100.00;101446.75;20482998;28;20082;-90
2022/11/10 05:20:39;;;;;;;1.23;0.80;;;;;;;17.19;100.00;101464.50;20450544;28;20508;-87
2022/11/10 05:30:59;;;;;;;4.25;1.00;;;;;;;17.23;100.00;101457.06;20440399;28;20051;-94
2022/11/10 05:41:20;;;;;;;3.15;1.35;;;;;;;17.31;100.00;101461.84;20465187;28;20108;-93
2022/11/10 05:51:39;;;;;;;3.13;1.63;;;;;;;17.36;100.00;101454.28;20465813;28;20047;-91
2022/11/10 06:01:59;;;;;;;5.97;1.38;;;;;;;17.40;100.00;101474.59;20480887;28;20051;-94
2022/11/10 06:12:20;;;;;;;4.38;1.77;;;;;;;17.42;100.00;101482.53;20479167;28;20496;-94
2022/11/10 06:22:40;;;;;;;3.50;0.90;;;;;;;17.10;100.00;101455.31;20478025;28;20046;-93
2022/11/10 06:33:00;;;;;;;2.25;1.25;;;;;;;17.25;100.00;101496.34;20480850;28;20504;-94
2022/11/10 06:43:20;;;;;;;3.10;1.20;;;;;;;17.43;100.00;101538.94;20474184;28;20047;-93
2022/11/10 06:53:41;;;;;;;2.10;1.10;;;;;;;17.44;100.00;101570.28;20489956;28;20051;-94
2022/11/10 07:04:01;;;;;;;2.40;0.90;;;;;;;17.44;100.00;101581.03;20474518;28;20055;-93
2022/11/10 07:14:40;;;;;;;3.35;0.90;;;;;;;17.32;100.00;101598.13;20471954;28;20055;-92
2022/11/10 07:25:00;;;;;;;4.78;1.30;;;;;;;17.45;100.00;101627.66;20481316;28;20122;-94
2022/11/10 07:35:20;;;;;;;2.10;0.98;;;;;;;17.44;100.00;101616.03;20537683;28;20047;-94
2022/11/10 07:45:41;;;;;;;2.70;1.08;;;;;;;17.44;100.00;101616.03;20533766;28;20063;-93
2022/11/10 07:56:00;;;;;;;2.92;1.20;;;;;;;17.44;100.00;101636.69;20539804;28;20066;-94
2022/11/10 08:06:20;;;;;;;2.13;1.10;;;;;;;17.34;100.00;101629.31;20544587;28;20047;-94
2022/11/10 08:16:41;;;;;;;2.05;1.00;;;;;;;17.44;100.00;101674.38;20543499;28;20047;-94
2022/11/10 08:27:01;;;;;;;2.35;0.93;;;;;;;17.43;100.00;101670.84;20558620;28;20043;-95
2022/11/10 08:37:21;;;;;;;2.38;1.20;;;;;;;17.36;100.00;101662.34;20540439;28;20047;-95
2022/11/10 08:47:43;;;;;;;2.20;0.90;;;;;;;17.37;100.00;101676.69;20540338;28;20047;-95
2022/11/10 08:58:04;;;;;;;2.05;1.10;;;;;;;17.44;100.00;101704.88;20533527;28;20043;-95
2022/11/10 09:08:25;;;;;;;3.05;1.15;;;;;;;17.44;100.00;101721.00;20534043;28;20047;-95
2022/11/10 09:18:45;;;;;;;2.45;1.05;;;;;;;17.45;100.00;101738.00;20539162;28;20051;-95
2022/11/10 09:29:05;;;;;;;3.10;1.05;;;;;;;17.43;100.00;101754.28;20537145;28;20043;-95
2022/11/10 09:39:25;;;;;;;2.45;1.00;;;;;;;17.45;100.00;101757.72;20522177;28;20071;-89
2022/11/10 09:49:50;;;;;;;3.17;1.20;;;;;;;17.45;100.00;101773.88;20448207;28;20055;-90
2022/11/10 10:00:15;;;;;;;3.75;1.30;;;;;;;17.47;100.00;101785.41;20455023;28;20427;-90
2022/11/10 10:10:45;;;;;;;3.33;1.23;;;;;;;17.02;100.00;101715.09;20454647;28;20478;-91
2022/11/10 10:21:16;;;;;;;1.80;1.05;;;;;;;17.48;100.00;101789.81;20464958;28;20051;-88
2022/11/10 10:31:49;;;;;;;3.25;1.20;;;;;;;17.50;100.00;101811.25;20482997;28;20058;-91
2022/11/10 10:42:27;;;;;;;3.70;1.20;;;;;;;17.50;100.00;101833.63;20463503;28;20699;-91
2022/11/10 10:53:14;;;;;;;1.77;0.85;;;;;;;17.50;100.00;101833.63;20466766;28;20135;-91
2022/11/10 11:03:39;;;;;;;2.90;1.60;;;;;;;17.50;100.00;101852.47;20450687;28;20047;-90
2022/11/10 11:14:25;;;;;;;1.83;0.85;;;;;;;17.51;100.00;101843.44;20470595;28;20047;-94
2022/11/10 11:25:09;;;;;;;4.47;1.03;;;;;;;17.37;100.00;101828.25;20485583;28;20044;-93
2022/11/10 11:35:37;;;;;;;1.42;0.95;;;;;;;17.50;100.00;101865.94;20463375;28;20503;-93
2022/11/10 11:46:37;;;;;;;2.38;1.17;;;;;;;17.52;100.00;101890.91;20459233;28;20412;-90
2022/11/10 11:57:37;;;;;;;2.35;1.05;;;;;;;17.51;100.00;101891.03;20441323;28;20051;-87
2022/11/10 12:08:09;;;;;;;1.90;0.95;;;;;;;17.52;100.00;101899.00;20458853;28;20055;-86
2022/11/10 12:18:33;;;;;;;2.50;0.90;;;;;;;17.52;100.00;101898.16;20452580;28;20048;-91
2022/11/10 12:29:23;;;;;;;2.17;0.90;;;;;;;17.53;100.00;101913.31;20445599;28;20395;-91
2022/11/10 12:39:55;;;;;;;1.65;0.80;;;;;;;17.52;100.00;101920.53;20455939;28;20107;-92
2022/11/10 12:50:15;;;;;;;2.60;0.98;;;;;;;17.52;100.00;101925.91;20440465;28;20051;-93
2022/11/10 13:00:45;;;;;;;1.83;0.77;;;;;;;17.42;100.00;101903.31;20437181;28;20048;-91
2022/11/10 13:11:11;;;;;;;1.05;0.77;;;;;;;17.52;99.94;101931.31;20478551;28;20423;-93
2022/11/10 13:21:49;;;;;;;2.47;0.82;;;;;;;17.53;99.27;101930.31;20455901;28;20142;-92
2022/11/10 13:32:12;;;;;;;4.20;0.93;;;;;;;17.54;99.61;101926.66;20473882;28;20059;-95
2022/11/10 13:42:32;;;;;;;3.60;0.90;;;;;;;17.36;99.79;101887.59;20484739;28;20071;-95
2022/11/10 13:53:30;;;;;;;1.92;0.88;;;;;;;17.54;99.79;101913.19;20500479;28;20055;-94
2022/11/10 14:03:53;;;;;;;3.33;0.63;;;;;;;17.52;99.97;101931.31;20459361;28;20060;-91
2022/11/10 14:14:22;;;;;;;1.35;0.80;;;;;;;17.52;99.97;101947.44;20469653;28;20111;-91
2022/11/10 14:25:05;;;;;;;2.50;0.70;;;;;;;17.53;99.92;101948.31;20448110;28;20051;-90
2022/11/10 14:35:28;;;;;;;1.58;0.82;;;;;;;17.50;99.94;101968.25;20458068;28;20047;-90
2022/11/10 14:45:51;;;;;;;1.58;0.70;;;;;;;17.36;100.00;101973.72;20473287;28;20050;-93
2022/11/10 14:56:18;;;;;;;1.45;0.60;;;;;;;17.12;100.00;101944.84;20467134;28;20803;-88
2022/11/10 15:06:39;;;;;;;0.68;0.50;;;;;;;17.45;100.00;102001.81;20449398;28;20148;-87
2022/11/10 15:17:08;;;;;;;1.05;0.60;;;;;;;17.44;100.00;102000.09;20449098;28;20047;-87
2022/11/10 15:27:30;;;;;;;0.60;0.47;;;;;;;17.42;100.00;102019.06;20431682;28;20051;-88
2022/11/10 15:38:23;;;;;;;1.42;0.50;;;;;;;17.29;100.00;101996.66;20473967;28;20408;-90
2022/11/10 15:48:48;;;;;;;0.98;0.57;;;;;;;16.79;100.00;101917.44;20456562;28;20134;-86
2022/11/10 15:59:09;;;;;;;1.00;0.50;;;;;;;17.39;100.00;102038.97;20440235;28;20055;-88
2022/11/10 16:09:30;;;;;;;0.73;0.60;;;;;;;17.17;100.00;102018.03;20438299;28;20138;-87
2022/11/10 16:19:50;;;;;;;1.35;0.52;;;;;;;17.38;100.00;102036.41;20450567;28;20443;-86
2022/11/10 16:30:12;;;;;;;1.02;0.50;;;;;;;17.39;100.00;102043.50;20461817;28;20054;-89
2022/11/10 16:40:32;;;;;;;0.98;0.50;;;;;;;17.37;100.00;102069.66;20465146;28;20564;-89
2022/11/10 16:50:54;;;;;;;0.85;0.50;;;;;;;17.37;100.00;102070.50;20455222;28;20051;-90
2022/11/10 17:01:25;;;;;;;1.15;0.65;;;;;;;17.08;100.00;102024.94;20474971;28;20142;-91
2022/11/10 17:11:46;;;;;;;0.88;0.40;;;;;;;17.00;100.00;102021.03;20443517;28;20063;-89
2022/11/10 17:22:09;;;;;;;1.58;0.50;;;;;;;17.07;100.00;102030.41;20436224;28;20188;-92
2022/11/10 17:32:30;;;;;;;1.08;0.68;;;;;;;17.36;100.00;102114.56;20444500;28;20059;-89
2022/11/10 17:43:11;;;;;;;1.40;0.50;;;;;;;17.37;100.00;102112.75;20437740;28;20059;-89
2022/11/10 17:53:31;;;;;;;0.50;0.50;;;;;;;17.33;100.00;102105.84;20464442;28;20052;-89
2022/11/10 18:03:51;;;;;;;0.77;0.40;;;;;;;17.37;100.00;102107.34;20464050;28;20043;-89
2022/11/10 18:14:11;;;;;;;0.43;0.40;;;;;;;17.35;100.00;102115.53;20449834;28;20600;-92
2022/11/10 18:24:31;;;;;;;0.40;0.40;;;;;;;17.36;100.00;102136.09;20445114;28;20071;-91
2022/11/10 18:34:52;;;;;;;1.42;0.50;;;;;;;17.35;100.00;102102.06;20443280;28;20138;-94
2022/11/10 18:45:12;;;;;;;0.55;0.40;;;;;;;17.35;100.00;102111.97;20449856;28;20052;-90
2022/11/10 18:55:32;;;;;;;1.38;0.45;;;;;;;17.06;100.00;102069.03;20453087;28;20043;-90
2022/11/10 19:05:52;;;;;;;0.65;0.47;;;;;;;17.35;100.00;102133.50;20456837;28;20051;-90
2022/11/10 19:16:18;;;;;;;1.20;0.40;;;;;;;17.34;100.00;102140.72;20461050;28;20063;-88
2022/11/10 19:26:38;;;;;;;0.77;0.50;;;;;;;16.91;100.00;102061.00;20451601;28;20071;-93
2022/11/10 19:36:58;;;;;;;1.20;0.45;;;;;;;17.10;100.00;102108.22;20651096;23;20100;-93
2022/11/10 19:47:18;;;;;;;0.85;0.57;;;;;;;17.33;100.00;102146.22;20497579;28;20043;-92
2022/11/10 19:57:39;;;;;;;0.70;0.45;;;;;;;17.32;100.00;102152.56;20465651;28;20051;-91
2022/11/10 20:08:11;;;;;;;0.90;0.40;;;;;;;17.30;100.00;102163.41;20476659;28;20043;-92
2022/11/10 20:18:33;;;;;;;1.05;0.50;;;;;;;17.21;100.00;102154.13;20470258;28;20088;-92
2022/11/10 20:28:53;;;;;;;0.63;0.38;;;;;;;17.28;100.00;102176.13;20465260;28;20047;-92
2022/11/10 20:39:13;;;;;;;0.98;0.50;;;;;;;17.02;100.00;102143.72;20470370;28;20055;-92
2022/11/10 20:49:34;;;;;;;1.02;0.50;;;;;;;17.28;100.00;102183.34;20468244;28;20099;-91
2022/11/10 20:59:53;;;;;;;0.70;0.50;;;;;;;17.28;100.00;102191.41;20469551;28;20492;-93
2022/11/10 21:10:14;;;;;;;1.08;0.50;;;;;;;17.15;100.00;102186.81;20470730;28;20488;-92
2022/11/10 21:20:34;;;;;;;1.25;0.60;;;;;;;16.95;100.00;102180.88;20463912;28;20055;-92
2022/11/10 21:31:04;;;;;;;1.63;0.57;;;;;;;16.95;100.00;102194.31;20469097;28;20047;-91
2022/11/10 21:41:24;;;;;;;1.05;0.45;;;;;;;16.93;100.00;102193.56;20466778;28;20500;-90
2022/11/10 21:51:45;;;;;;;2.08;0.60;;;;;;;16.83;100.00;102168.22;20461901;28;20520;-92
2022/11/10 22:02:05;;;;;;;1.13;0.70;;;;;;;17.25;100.00;102219.38;20466508;28;20088;-91
2022/11/10 22:23:04;;;;;;;0.70;0.35;;;;;;;17.16;100.00;102234.28;20479076;28;20039;-92
2022/11/10 22:33:27;;;;;;;0.90;0.60;;;;;;;17.24;100.00;102244.56;20486211;28;20044;-92
2022/11/10 22:44:05;;;;;;;1.10;0.60;;;;;;;17.24;100.00;102231.09;20508609;28;20051;-90
2022/11/10 22:54:25;;;;;;;1.23;0.57;;;;;;;16.91;100.00;102195.50;20483372;28;20059;-92
2022/11/10 23:04:45;;;;;;;0.60;0.60;;;;;;;17.24;100.00;102268.78;20483576;28;20126;-92
2022/11/10 23:15:05;;;;;;;1.17;0.50;;;;;;;17.22;100.00;102257.25;20483123;28;20051;-92
2022/11/10 23:25:25;;;;;;;0.88;0.47;;;;;;;17.12;100.00;102256.97;20467368;28;20043;-92
2022/11/10 23:35:45;;;;;;;1.63;0.60;;;;;;;16.90;100.00;102226.03;20480488;28;20416;-92
2022/11/10 23:46:06;;;;;;;0.98;0.50;;;;;;;17.21;100.00;102277.91;20479308;28;20126;-92
2022/11/10 23:56:27;;;;;;;0.57;0.50;;;;;;;17.21;100.00;102285.97;20478709;28;20047;-92
